This is the latest recevied weather packets stored in our database for station/object KSRC. If no packets are shown the sender has not sent any weather packets the latest 1 day(s).
| Time | Temp. | Humidity | Pressure | Rain* | Wind** | Luminosity | Snow |
|---|---|---|---|---|---|---|---|
| 1778013821 | 21.67° C | 83% | 1006.8 hPa | - | 3.58 m/s, 200° | - | - |
| 1778013219 | 21.67° C | 83% | 1006.8 hPa | - | 3.58 m/s, 200° | - | - |
| 1778012624 | 21.67° C | 83% | 1006.8 hPa | - | 3.58 m/s, 200° | - | - |
| 1778012018 | 21.67° C | 83% | 1006.8 hPa | - | 3.58 m/s, 200° | - | - |
| 1778011417 | 21.67° C | 83% | 1006.8 hPa | - | 3.58 m/s, 200° | - | - |
| 1778010820 | 21.67° C | 83% | 1006.8 hPa | - | 5.36 m/s, 210° | - | - |
| 1778010221 | 21.67° C | 83% | 1006.8 hPa | - | 5.36 m/s, 210° | - | - |
| 1778009617 | 21.67° C | 83% | 1006.8 hPa | - | 5.36 m/s, 210° | - | - |
| 1778009020 | 21.67° C | 83% | 1006.8 hPa | - | 5.36 m/s, 210° | - | - |
| 1778008419 | 21.67° C | 83% | 1006.8 hPa | - | 5.36 m/s, 210° | - | - |
| 1778007822 | 21.67° C | 83% | 1006.8 hPa | - | 5.36 m/s, 210° | - | - |
| 1778007222 | 21.67° C | 83% | 1006.4 hPa | - | 7.15 m/s, 200° | - | - |
| 1778006620 | 20.56° C | 88% | 1007.1 hPa | - | 4.92 m/s, 200° | - | - |
| 1778006023 | 20.56° C | 88% | 1007.1 hPa | - | 4.92 m/s, 200° | - | - |
| 1778005421 | 20.56° C | 88% | 1007.1 hPa | - | 4.92 m/s, 200° | - | - |
| 1778004818 | 20.56° C | 88% | 1007.1 hPa | - | 4.92 m/s, 200° | - | - |
| 1778004221 | 20.56° C | 88% | 1007.1 hPa | - | 4.92 m/s, 200° | - | - |
| 1778003619 | 20° C | 93% | 1007.5 hPa | - | 4.02 m/s, 200° | - | - |
| 1778003015 | 18.89° C | 93% | 1007.8 hPa | - | 4.02 m/s, 200° | - | - |
| 1778002417 | 18.89° C | 93% | 1007.8 hPa | - | 4.02 m/s, 200° | - | - |
| 1778001817 | 18.89° C | 93% | 1007.8 hPa | - | 4.02 m/s, 200° | - | - |
| 1778001223 | 18.89° C | 93% | 1007.8 hPa | - | 4.02 m/s, 200° | - | - |
| 1778000620 | 18.89° C | 93% | 1007.8 hPa | - | 4.02 m/s, 200° | - | - |
| 1778000020 | 18.89° C | 93% | 1008.1 hPa | - | 2.68 m/s, 200° | - | - |
| 1777999422 | 18.89° C | 93% | 1008.1 hPa | - | 2.68 m/s, 200° | - | - |
* Rain since midnight (hover to see other rain measurements)
** Current wind speed in m/s (hover to see current wind gust speed)